sensor_id;sensor_type;location;lat;lon;timestamp;pressure;altitude;pressure_sealevel;temperature;humidity
72959;BME280;60008;50.826;6.896;2023-05-12T00:02:43;100972.50;;;12.54;100.00
72959;BME280;60008;50.826;6.896;2023-05-12T00:05:28;100974.63;;;12.59;100.00
72959;BME280;60008;50.826;6.896;2023-05-12T00:08:13;100966.34;;;12.53;100.00
72959;BME280;60008;50.826;6.896;2023-05-12T00:11:00;100970.34;;;12.49;100.00
72959;BME280;60008;50.826;6.896;2023-05-12T00:13:45;100967.03;;;12.64;100.00
72959;BME280;60008;50.826;6.896;2023-05-12T00:16:30;100966.53;;;12.52;100.00
72959;BME280;60008;50.826;6.896;2023-05-12T00:19:15;100960.19;;;12.61;100.00
72959;BME280;60008;50.826;6.896;2023-05-12T00:22:01;100958.88;;;12.57;100.00
72959;BME280;60008;50.826;6.896;2023-05-12T00:24:46;100968.00;;;12.63;100.00
72959;BME280;60008;50.826;6.896;2023-05-12T00:27:31;100978.44;;;12.72;100.00
72959;BME280;60008;50.826;6.896;2023-05-12T00:30:16;100969.00;;;12.53;100.00
72959;BME280;60008;50.826;6.896;2023-05-12T00:33:02;100968.34;;;12.60;100.00
72959;BME280;60008;50.826;6.896;2023-05-12T00:35:47;100966.50;;;12.68;100.00
72959;BME280;60008;50.826;6.896;2023-05-12T00:38:32;100966.84;;;12.57;100.00
72959;BME280;60008;50.826;6.896;2023-05-12T00:41:21;100962.19;;;12.59;100.00
72959;BME280;60008;50.826;6.896;2023-05-12T00:44:06;100969.69;;;12.64;100.00
72959;BME280;60008;50.826;6.896;2023-05-12T00:46:51;100960.53;;;12.66;100.00
72959;BME280;60008;50.826;6.896;2023-05-12T00:49:37;100962.00;;;12.77;100.00
72959;BME280;60008;50.826;6.896;2023-05-12T00:52:26;100960.66;;;12.81;100.00
72959;BME280;60008;50.826;6.896;2023-05-12T00:55:11;100962.84;;;12.77;100.00
72959;BME280;60008;50.826;6.896;2023-05-12T00:57:56;100959.00;;;12.80;100.00
72959;BME280;60008;50.826;6.896;2023-05-12T01:00:41;100959.16;;;12.86;100.00
72959;BME280;60008;50.826;6.896;2023-05-12T01:03:26;100958.31;;;12.86;100.00
72959;BME280;60008;50.826;6.896;2023-05-12T01:06:17;100950.88;;;12.65;100.00
72959;BME280;60008;50.826;6.896;2023-05-12T01:09:04;100948.53;;;12.70;100.00
72959;BME280;60008;50.826;6.896;2023-05-12T01:11:50;100945.56;;;12.57;100.00
72959;BME280;60008;50.826;6.896;2023-05-12T01:14:35;100948.75;;;12.61;100.00
72959;BME280;60008;50.826;6.896;2023-05-12T01:17:29;100947.56;;;12.71;100.00
72959;BME280;60008;50.826;6.896;2023-05-12T01:20:17;100943.88;;;12.64;100.00
72959;BME280;60008;50.826;6.896;2023-05-12T01:23:04;100935.25;;;12.62;100.00
72959;BME280;60008;50.826;6.896;2023-05-12T01:25:50;100920.69;;;12.50;100.00
72959;BME280;60008;50.826;6.896;2023-05-12T01:28:36;100913.50;;;12.50;100.00
72959;BME280;60008;50.826;6.896;2023-05-12T01:31:23;100918.16;;;12.57;100.00
72959;BME280;60008;50.826;6.896;2023-05-12T01:34:07;100916.31;;;12.57;100.00
72959;BME280;60008;50.826;6.896;2023-05-12T01:36:52;100915.69;;;12.55;100.00
72959;BME280;60008;50.826;6.896;2023-05-12T01:39:37;100909.84;;;12.60;100.00
72959;BME280;60008;50.826;6.896;2023-05-12T01:42:22;100907.19;;;12.60;100.00
72959;BME280;60008;50.826;6.896;2023-05-12T01:45:08;100909.53;;;12.54;100.00
72959;BME280;60008;50.826;6.896;2023-05-12T01:47:53;100905.34;;;12.60;100.00
72959;BME280;60008;50.826;6.896;2023-05-12T01:50:38;100904.19;;;12.63;100.00
72959;BME280;60008;50.826;6.896;2023-05-12T01:53:22;100902.69;;;12.60;100.00
72959;BME280;60008;50.826;6.896;2023-05-12T01:56:07;100897.88;;;12.55;100.00
72959;BME280;60008;50.826;6.896;2023-05-12T01:58:52;100909.00;;;12.67;100.00
72959;BME280;60008;50.826;6.896;2023-05-12T02:01:37;100900.88;;;12.61;100.00
72959;BME280;60008;50.826;6.896;2023-05-12T02:04:23;100903.34;;;12.62;100.00
72959;BME280;60008;50.826;6.896;2023-05-12T02:07:07;100898.88;;;12.63;100.00
72959;BME280;60008;50.826;6.896;2023-05-12T02:09:52;100905.69;;;12.65;100.00
72959;BME280;60008;50.826;6.896;2023-05-12T02:12:37;100899.84;;;12.70;100.00
72959;BME280;60008;50.826;6.896;2023-05-12T02:15:22;100909.00;;;12.67;100.00
72959;BME280;60008;50.826;6.896;2023-05-12T02:18:08;100909.50;;;12.63;100.00
72959;BME280;60008;50.826;6.896;2023-05-12T02:20:53;100901.03;;;12.59;100.00
72959;BME280;60008;50.826;6.896;2023-05-12T02:23:38;100908.16;;;12.59;100.00
72959;BME280;60008;50.826;6.896;2023-05-12T02:26:23;100912.50;;;12.60;100.00
72959;BME280;60008;50.826;6.896;2023-05-12T02:29:08;100904.69;;;12.58;100.00
72959;BME280;60008;50.826;6.896;2023-05-12T02:31:54;100905.69;;;12.57;100.00
72959;BME280;60008;50.826;6.896;2023-05-12T02:34:40;100894.75;;;12.52;100.00
72959;BME280;60008;50.826;6.896;2023-05-12T02:37:25;100898.22;;;12.52;100.00
72959;BME280;60008;50.826;6.896;2023-05-12T02:40:10;100900.53;;;12.64;100.00
72959;BME280;60008;50.826;6.896;2023-05-12T02:42:55;100893.88;;;12.60;100.00
72959;BME280;60008;50.826;6.896;2023-05-12T02:45:40;100894.38;;;12.63;100.00
72959;BME280;60008;50.826;6.896;2023-05-12T02:48:25;100894.72;;;12.60;100.00
72959;BME280;60008;50.826;6.896;2023-05-12T02:51:10;100890.41;;;12.59;100.00
72959;BME280;60008;50.826;6.896;2023-05-12T02:53:55;100895.38;;;12.62;100.00
72959;BME280;60008;50.826;6.896;2023-05-12T02:56:40;100891.03;;;12.69;100.00
72959;BME280;60008;50.826;6.896;2023-05-12T02:59:25;100895.66;;;12.75;100.00
72959;BME280;60008;50.826;6.896;2023-05-12T03:02:11;100897.03;;;12.71;100.00
72959;BME280;60008;50.826;6.896;2023-05-12T03:04:56;100883.75;;;12.63;100.00
72959;BME280;60008;50.826;6.896;2023-05-12T03:07:41;100896.50;;;12.76;100.00
72959;BME280;60008;50.826;6.896;2023-05-12T03:10:26;100893.50;;;12.79;100.00
72959;BME280;60008;50.826;6.896;2023-05-12T03:13:11;100892.16;;;12.75;100.00
72959;BME280;60008;50.826;6.896;2023-05-12T03:15:56;100894.69;;;12.76;100.00
72959;BME280;60008;50.826;6.896;2023-05-12T03:18:45;100900.84;;;12.69;100.00
72959;BME280;60008;50.826;6.896;2023-05-12T03:21:30;100898.69;;;12.64;100.00
72959;BME280;60008;50.826;6.896;2023-05-12T03:24:15;100898.31;;;12.75;100.00
72959;BME280;60008;50.826;6.896;2023-05-12T03:27:00;100907.13;;;12.76;100.00
72959;BME280;60008;50.826;6.896;2023-05-12T03:29:45;100906.00;;;12.62;100.00
72959;BME280;60008;50.826;6.896;2023-05-12T03:32:30;100910.00;;;12.66;100.00
72959;BME280;60008;50.826;6.896;2023-05-12T03:35:15;100910.31;;;12.71;100.00
72959;BME280;60008;50.826;6.896;2023-05-12T03:38:00;100910.34;;;12.63;100.00
72959;BME280;60008;50.826;6.896;2023-05-12T03:40:45;100912.31;;;12.61;100.00
72959;BME280;60008;50.826;6.896;2023-05-12T03:43:35;100911.50;;;12.61;100.00
72959;BME280;60008;50.826;6.896;2023-05-12T03:46:20;100904.34;;;12.61;100.00
72959;BME280;60008;50.826;6.896;2023-05-12T03:49:06;100911.16;;;12.55;100.00
72959;BME280;60008;50.826;6.896;2023-05-12T03:51:51;100908.03;;;12.52;100.00
72959;BME280;60008;50.826;6.896;2023-05-12T03:54:36;100904.19;;;12.54;100.00
72959;BME280;60008;50.826;6.896;2023-05-12T03:57:22;100903.88;;;12.49;100.00
72959;BME280;60008;50.826;6.896;2023-05-12T04:00:07;100907.84;;;12.53;100.00
72959;BME280;60008;50.826;6.896;2023-05-12T04:02:52;100903.56;;;12.52;100.00
72959;BME280;60008;50.826;6.896;2023-05-12T04:05:37;100906.19;;;12.61;100.00
72959;BME280;60008;50.826;6.896;2023-05-12T04:08:23;100910.03;;;12.58;100.00
72959;BME280;60008;50.826;6.896;2023-05-12T04:11:08;100902.69;;;12.60;100.00
72959;BME280;60008;50.826;6.896;2023-05-12T04:13:53;100907.00;;;12.53;100.00
72959;BME280;60008;50.826;6.896;2023-05-12T04:16:38;100911.66;;;12.59;100.00
72959;BME280;60008;50.826;6.896;2023-05-12T04:19:24;100906.84;;;12.63;100.00
72959;BME280;60008;50.826;6.896;2023-05-12T04:22:09;100914.81;;;12.63;100.00
72959;BME280;60008;50.826;6.896;2023-05-12T04:24:54;100908.16;;;12.59;100.00
72959;BME280;60008;50.826;6.896;2023-05-12T04:27:39;100909.03;;;12.51;100.00
72959;BME280;60008;50.826;6.896;2023-05-12T04:30:24;100908.06;;;12.36;100.00
72959;BME280;60008;50.826;6.896;2023-05-12T04:33:09;100901.38;;;12.48;100.00
72959;BME280;60008;50.826;6.896;2023-05-12T04:35:55;100903.88;;;12.58;100.00
72959;BME280;60008;50.826;6.896;2023-05-12T04:38:40;100901.38;;;12.48;100.00
72959;BME280;60008;50.826;6.896;2023-05-12T04:41:25;100906.88;;;12.54;100.00
72959;BME280;60008;50.826;6.896;2023-05-12T04:44:10;100899.41;;;12.50;100.00
72959;BME280;60008;50.826;6.896;2023-05-12T04:46:55;100901.69;;;12.53;100.00
72959;BME280;60008;50.826;6.896;2023-05-12T04:49:41;100896.91;;;12.48;100.00
72959;BME280;60008;50.826;6.896;2023-05-12T04:52:26;100906.34;;;12.59;100.00
72959;BME280;60008;50.826;6.896;2023-05-12T04:55:11;100902.03;;;12.42;100.00
72959;BME280;60008;50.826;6.896;2023-05-12T04:57:56;100910.38;;;12.47;100.00
72959;BME280;60008;50.826;6.896;2023-05-12T05:00:41;100904.91;;;12.32;100.00
72959;BME280;60008;50.826;6.896;2023-05-12T05:03:27;100912.00;;;12.48;100.00
72959;BME280;60008;50.826;6.896;2023-05-12T05:06:12;100910.88;;;12.34;100.00
72959;BME280;60008;50.826;6.896;2023-05-12T05:08:57;100907.38;;;12.26;100.00
72959;BME280;60008;50.826;6.896;2023-05-12T05:11:42;100916.66;;;12.54;100.00
72959;BME280;60008;50.826;6.896;2023-05-12T05:14:27;100924.00;;;12.44;100.00
72959;BME280;60008;50.826;6.896;2023-05-12T05:17:12;100924.66;;;12.38;100.00
72959;BME280;60008;50.826;6.896;2023-05-12T05:19:57;100913.19;;;12.37;100.00
72959;BME280;60008;50.826;6.896;2023-05-12T05:22:43;100923.81;;;12.53;100.00
72959;BME280;60008;50.826;6.896;2023-05-12T05:25:28;100917.00;;;12.35;100.00
72959;BME280;60008;50.826;6.896;2023-05-12T05:28:13;100915.19;;;12.43;100.00
72959;BME280;60008;50.826;6.896;2023-05-12T05:30:58;100925.81;;;12.43;100.00
72959;BME280;60008;50.826;6.896;2023-05-12T05:33:43;100927.97;;;12.40;100.00
72959;BME280;60008;50.826;6.896;2023-05-12T05:36:28;100919.03;;;12.25;100.00
72959;BME280;60008;50.826;6.896;2023-05-12T05:39:15;100919.34;;;12.38;100.00
72959;BME280;60008;50.826;6.896;2023-05-12T05:42:00;100927.13;;;12.47;100.00
72959;BME280;60008;50.826;6.896;2023-05-12T05:44:45;100926.16;;;12.40;100.00
72959;BME280;60008;50.826;6.896;2023-05-12T05:47:30;100928.16;;;12.46;100.00
72959;BME280;60008;50.826;6.896;2023-05-12T05:50:16;100932.81;;;12.44;100.00
72959;BME280;60008;50.826;6.896;2023-05-12T05:53:00;100935.47;;;12.44;100.00
72959;BME280;60008;50.826;6.896;2023-05-12T05:55:46;100946.75;;;12.30;100.00
72959;BME280;60008;50.826;6.896;2023-05-12T05:58:32;100942.28;;;12.39;100.00
72959;BME280;60008;50.826;6.896;2023-05-12T06:01:17;100948.75;;;12.36;100.00
72959;BME280;60008;50.826;6.896;2023-05-12T06:04:02;100956.56;;;12.30;100.00
72959;BME280;60008;50.826;6.896;2023-05-12T06:06:47;100957.88;;;12.26;100.00
72959;BME280;60008;50.826;6.896;2023-05-12T06:09:32;100964.34;;;12.31;100.00
72959;BME280;60008;50.826;6.896;2023-05-12T06:12:17;100961.22;;;12.28;100.00
72959;BME280;60008;50.826;6.896;2023-05-12T06:15:02;100965.84;;;12.34;100.00
72959;BME280;60008;50.826;6.896;2023-05-12T06:17:47;100977.63;;;12.39;100.00
72959;BME280;60008;50.826;6.896;2023-05-12T06:20:32;100978.66;;;12.30;100.00
72959;BME280;60008;50.826;6.896;2023-05-12T06:23:17;100991.63;;;12.33;100.00
72959;BME280;60008;50.826;6.896;2023-05-12T06:26:02;100990.78;;;12.33;100.00
72959;BME280;60008;50.826;6.896;2023-05-12T06:28:48;100977.81;;;12.30;100.00
72959;BME280;60008;50.826;6.896;2023-05-12T06:31:33;100980.66;;;12.28;100.00
72959;BME280;60008;50.826;6.896;2023-05-12T06:34:18;100978.00;;;12.44;100.00
72959;BME280;60008;50.826;6.896;2023-05-12T06:37:03;100986.63;;;12.46;100.00
72959;BME280;60008;50.826;6.896;2023-05-12T06:39:48;100987.47;;;12.47;100.00
72959;BME280;60008;50.826;6.896;2023-05-12T06:42:33;100982.63;;;12.42;100.00
72959;BME280;60008;50.826;6.896;2023-05-12T06:45:18;100984.47;;;12.66;100.00
72959;BME280;60008;50.826;6.896;2023-05-12T06:48:04;100985.59;;;12.80;100.00
72959;BME280;60008;50.826;6.896;2023-05-12T06:50:49;100992.25;;;12.76;100.00
72959;BME280;60008;50.826;6.896;2023-05-12T06:53:34;100998.22;;;12.70;100.00
72959;BME280;60008;50.826;6.896;2023-05-12T06:56:22;101001.06;;;12.76;100.00
72959;BME280;60008;50.826;6.896;2023-05-12T06:59:07;100994.91;;;12.84;100.00
72959;BME280;60008;50.826;6.896;2023-05-12T07:01:52;100995.53;;;12.94;100.00
72959;BME280;60008;50.826;6.896;2023-05-12T07:04:38;100998.06;;;12.79;100.00
72959;BME280;60008;50.826;6.896;2023-05-12T07:07:23;101012.97;;;13.04;100.00
72959;BME280;60008;50.826;6.896;2023-05-12T07:10:08;101009.84;;;13.01;100.00
72959;BME280;60008;50.826;6.896;2023-05-12T07:12:54;101009.50;;;13.20;100.00
72959;BME280;60008;50.826;6.896;2023-05-12T07:15:39;101005.75;;;13.37;100.00
72959;BME280;60008;50.826;6.896;2023-05-12T07:18:24;101011.31;;;13.66;100.00
72959;BME280;60008;50.826;6.896;2023-05-12T07:21:09;100999.16;;;13.95;100.00
72959;BME280;60008;50.826;6.896;2023-05-12T07:23:54;100993.00;;;14.17;100.00
72959;BME280;60008;50.826;6.896;2023-05-12T07:26:39;100984.00;;;14.18;100.00
72959;BME280;60008;50.826;6.896;2023-05-12T07:29:24;100978.25;;;14.06;100.00
72959;BME280;60008;50.826;6.896;2023-05-12T07:32:09;100993.97;;;14.24;100.00
72959;BME280;60008;50.826;6.896;2023-05-12T07:34:54;101000.31;;;14.23;100.00
72959;BME280;60008;50.826;6.896;2023-05-12T07:37:39;100993.84;;;14.17;100.00
72959;BME280;60008;50.826;6.896;2023-05-12T07:40:25;100980.72;;;14.39;100.00
72959;BME280;60008;50.826;6.896;2023-05-12T07:43:10;100992.91;;;14.70;100.00
72959;BME280;60008;50.826;6.896;2023-05-12T07:45:56;100989.19;;;14.79;100.00
72959;BME280;60008;50.826;6.896;2023-05-12T07:48:42;100986.53;;;14.57;100.00
72959;BME280;60008;50.826;6.896;2023-05-12T07:51:28;100987.25;;;14.88;100.00
72959;BME280;60008;50.826;6.896;2023-05-12T07:54:13;100996.47;;;14.48;100.00
72959;BME280;60008;50.826;6.896;2023-05-12T07:56:58;100995.03;;;14.15;100.00
72959;BME280;60008;50.826;6.896;2023-05-12T07:59:43;101010.47;;;14.50;100.00
72959;BME280;60008;50.826;6.896;2023-05-12T08:02:28;100996.66;;;14.47;100.00
72959;BME280;60008;50.826;6.896;2023-05-12T08:05:13;100996.16;;;14.20;100.00
72959;BME280;60008;50.826;6.896;2023-05-12T08:07:58;100996.50;;;14.63;100.00
72959;BME280;60008;50.826;6.896;2023-05-12T08:10:43;100994.38;;;14.58;100.00
72959;BME280;60008;50.826;6.896;2023-05-12T08:13:28;100995.84;;;15.13;100.00
72959;BME280;60008;50.826;6.896;2023-05-12T08:16:13;100987.66;;;15.00;100.00
72959;BME280;60008;50.826;6.896;2023-05-12T08:18:58;100985.72;;;15.88;100.00
72959;BME280;60008;50.826;6.896;2023-05-12T08:21:43;100982.06;;;17.08;100.00
72959;BME280;60008;50.826;6.896;2023-05-12T08:24:29;100977.91;;;17.40;100.00
72959;BME280;60008;50.826;6.896;2023-05-12T08:27:14;100981.53;;;16.42;100.00
72959;BME280;60008;50.826;6.896;2023-05-12T08:29:59;100989.03;;;15.90;100.00
72959;BME280;60008;50.826;6.896;2023-05-12T08:32:44;101005.59;;;15.35;100.00
72959;BME280;60008;50.826;6.896;2023-05-12T08:35:29;101012.88;;;15.26;100.00
72959;BME280;60008;50.826;6.896;2023-05-12T08:38:14;101019.69;;;15.43;100.00
72959;BME280;60008;50.826;6.896;2023-05-12T08:41:18;101002.84;;;14.99;100.00
72959;BME280;60008;50.826;6.896;2023-05-12T08:44:06;101015.00;;;15.31;100.00
72959;BME280;60008;50.826;6.896;2023-05-12T08:46:53;101018.06;;;15.57;100.00
72959;BME280;60008;50.826;6.896;2023-05-12T08:49:39;100998.56;;;16.35;100.00
72959;BME280;60008;50.826;6.896;2023-05-12T08:52:28;100988.16;;;17.30;100.00
72959;BME280;60008;50.826;6.896;2023-05-12T08:55:14;100992.09;;;16.99;100.00
72959;BME280;60008;50.826;6.896;2023-05-12T08:58:01;100990.69;;;17.78;100.00
72959;BME280;60008;50.826;6.896;2023-05-12T09:00:48;100991.59;;;18.18;100.00
72959;BME280;60008;50.826;6.896;2023-05-12T09:03:34;100984.97;;;18.01;100.00
72959;BME280;60008;50.826;6.896;2023-05-12T09:06:19;100986.34;;;16.96;100.00
72959;BME280;60008;50.826;6.896;2023-05-12T09:09:04;100996.91;;;16.76;100.00
72959;BME280;60008;50.826;6.896;2023-05-12T09:11:51;101007.63;;;16.83;100.00
72959;BME280;60008;50.826;6.896;2023-05-12T09:14:41;100993.06;;;16.64;100.00
72959;BME280;60008;50.826;6.896;2023-05-12T09:17:28;100998.38;;;17.13;100.00
72959;BME280;60008;50.826;6.896;2023-05-12T09:20:14;100996.53;;;16.86;100.00
72959;BME280;60008;50.826;6.896;2023-05-12T09:23:19;101003.06;;;15.92;100.00
72959;BME280;60008;50.826;6.896;2023-05-12T09:26:05;101005.75;;;15.77;100.00
72959;BME280;60008;50.826;6.896;2023-05-12T09:28:52;101007.16;;;15.73;100.00
72959;BME280;60008;50.826;6.896;2023-05-12T09:31:37;101011.25;;;15.90;100.00
72959;BME280;60008;50.826;6.896;2023-05-12T09:34:34;101015.09;;;16.02;100.00
72959;BME280;60008;50.826;6.896;2023-05-12T09:37:29;101015.81;;;16.32;100.00
72959;BME280;60008;50.826;6.896;2023-05-12T09:40:15;101015.56;;;16.70;100.00
72959;BME280;60008;50.826;6.896;2023-05-12T09:43:02;101010.28;;;16.76;100.00
72959;BME280;60008;50.826;6.896;2023-05-12T09:45:46;101008.19;;;17.34;100.00
72959;BME280;60008;50.826;6.896;2023-05-12T09:48:34;101005.25;;;17.28;100.00
72959;BME280;60008;50.826;6.896;2023-05-12T09:51:20;101001.06;;;19.32;100.00
72959;BME280;60008;50.826;6.896;2023-05-12T09:54:05;101008.59;;;19.04;100.00
72959;BME280;60008;50.826;6.896;2023-05-12T09:56:56;101014.31;;;18.09;100.00
72959;BME280;60008;50.826;6.896;2023-05-12T09:59:42;101014.22;;;17.83;100.00
72959;BME280;60008;50.826;6.896;2023-05-12T10:02:28;101013.75;;;17.66;100.00
72959;BME280;60008;50.826;6.896;2023-05-12T10:05:18;101012.84;;;18.13;100.00
72959;BME280;60008;50.826;6.896;2023-05-12T10:08:06;101012.28;;;17.64;100.00
72959;BME280;60008;50.826;6.896;2023-05-12T10:10:52;101013.16;;;17.71;100.00
72959;BME280;60008;50.826;6.896;2023-05-12T10:13:37;101004.53;;;17.89;100.00
72959;BME280;60008;50.826;6.896;2023-05-12T10:16:23;101016.53;;;17.99;100.00
72959;BME280;60008;50.826;6.896;2023-05-12T10:19:11;101015.13;;;18.16;100.00
72959;BME280;60008;50.826;6.896;2023-05-12T10:21:57;101005.53;;;17.74;100.00
72959;BME280;60008;50.826;6.896;2023-05-12T10:24:43;101015.34;;;17.54;100.00
72959;BME280;60008;50.826;6.896;2023-05-12T10:27:31;101009.56;;;17.57;100.00
72959;BME280;60008;50.826;6.896;2023-05-12T10:30:17;101016.44;;;17.73;100.00
72959;BME280;60008;50.826;6.896;2023-05-12T10:33:02;101002.69;;;17.89;100.00
72959;BME280;60008;50.826;6.896;2023-05-12T10:35:47;101001.53;;;17.57;100.00
72959;BME280;60008;50.826;6.896;2023-05-12T10:38:35;100997.09;;;17.84;100.00
72959;BME280;60008;50.826;6.896;2023-05-12T10:41:31;100996.84;;;18.59;100.00
72959;BME280;60008;50.826;6.896;2023-05-12T10:44:25;101002.00;;;18.48;100.00
72959;BME280;60008;50.826;6.896;2023-05-12T10:47:12;100997.44;;;20.15;100.00
72959;BME280;60008;50.826;6.896;2023-05-12T10:50:00;100992.59;;;21.77;100.00
72959;BME280;60008;50.826;6.896;2023-05-12T10:52:52;101004.84;;;19.12;100.00
72959;BME280;60008;50.826;6.896;2023-05-12T10:55:42;100998.03;;;19.09;100.00
72959;BME280;60008;50.826;6.896;2023-05-12T10:58:29;100993.91;;;18.41;100.00
72959;BME280;60008;50.826;6.896;2023-05-12T11:01:23;101001.72;;;19.28;100.00
72959;BME280;60008;50.826;6.896;2023-05-12T11:04:16;100997.13;;;17.97;100.00
72959;BME280;60008;50.826;6.896;2023-05-12T11:07:04;100992.47;;;18.45;100.00
72959;BME280;60008;50.826;6.896;2023-05-12T11:09:53;100999.94;;;18.82;100.00
72959;BME280;60008;50.826;6.896;2023-05-12T11:12:44;101006.56;;;18.80;100.00
72959;BME280;60008;50.826;6.896;2023-05-12T11:15:29;101000.16;;;18.68;100.00
72959;BME280;60008;50.826;6.896;2023-05-12T11:18:21;101003.66;;;18.81;100.00
72959;BME280;60008;50.826;6.896;2023-05-12T11:21:10;100999.94;;;18.69;100.00
72959;BME280;60008;50.826;6.896;2023-05-12T11:23:56;101007.09;;;18.29;100.00
72959;BME280;60008;50.826;6.896;2023-05-12T11:26:42;101001.34;;;18.39;100.00
72959;BME280;60008;50.826;6.896;2023-05-12T11:29:26;101002.34;;;18.12;100.00
72959;BME280;60008;50.826;6.896;2023-05-12T11:32:14;100994.31;;;18.38;100.00
72959;BME280;60008;50.826;6.896;2023-05-12T11:35:13;101004.25;;;18.44;100.00
72959;BME280;60008;50.826;6.896;2023-05-12T11:37:58;101008.81;;;18.57;100.00
72959;BME280;60008;50.826;6.896;2023-05-12T11:40:44;101009.22;;;18.54;100.00
72959;BME280;60008;50.826;6.896;2023-05-12T11:43:29;101008.34;;;18.40;100.00
72959;BME280;60008;50.826;6.896;2023-05-12T11:46:27;101011.81;;;19.32;100.00
72959;BME280;60008;50.826;6.896;2023-05-12T11:49:12;101013.34;;;19.09;100.00
72959;BME280;60008;50.826;6.896;2023-05-12T11:52:01;101011.28;;;19.04;100.00
72959;BME280;60008;50.826;6.896;2023-05-12T11:54:56;101014.16;;;19.02;100.00
72959;BME280;60008;50.826;6.896;2023-05-12T11:57:41;101010.50;;;18.64;100.00
72959;BME280;60008;50.826;6.896;2023-05-12T12:00:31;101014.59;;;18.93;100.00
72959;BME280;60008;50.826;6.896;2023-05-12T12:03:16;101018.72;;;18.95;100.00
72959;BME280;60008;50.826;6.896;2023-05-12T12:06:02;101017.25;;;19.13;100.00
72959;BME280;60008;50.826;6.896;2023-05-12T12:08:54;101024.94;;;18.96;100.00
72959;BME280;60008;50.826;6.896;2023-05-12T12:11:39;101022.03;;;18.71;100.00
72959;BME280;60008;50.826;6.896;2023-05-12T12:14:24;101022.22;;;18.70;100.00
72959;BME280;60008;50.826;6.896;2023-05-12T12:17:09;101027.19;;;18.73;100.00
72959;BME280;60008;50.826;6.896;2023-05-12T12:19:55;101023.50;;;18.74;100.00
72959;BME280;60008;50.826;6.896;2023-05-12T12:22:39;101026.78;;;18.63;100.00
72959;BME280;60008;50.826;6.896;2023-05-12T12:25:25;101025.56;;;18.52;100.00
72959;BME280;60008;50.826;6.896;2023-05-12T12:28:09;101033.19;;;18.62;100.00
72959;BME280;60008;50.826;6.896;2023-05-12T12:30:54;101031.34;;;18.69;100.00
72959;BME280;60008;50.826;6.896;2023-05-12T12:33:39;101029.06;;;18.85;100.00
72959;BME280;60008;50.826;6.896;2023-05-12T12:36:24;101030.09;;;18.84;100.00
72959;BME280;60008;50.826;6.896;2023-05-12T12:39:09;101025.34;;;18.93;100.00
72959;BME280;60008;50.826;6.896;2023-05-12T12:41:54;101031.13;;;18.90;100.00
72959;BME280;60008;50.826;6.896;2023-05-12T12:44:39;101035.88;;;18.88;100.00
72959;BME280;60008;50.826;6.896;2023-05-12T12:47:24;101029.88;;;19.06;100.00
72959;BME280;60008;50.826;6.896;2023-05-12T12:50:10;101033.81;;;18.77;100.00
72959;BME280;60008;50.826;6.896;2023-05-12T12:52:54;101022.47;;;18.68;100.00
72959;BME280;60008;50.826;6.896;2023-05-12T12:55:39;101030.50;;;19.08;100.00
72959;BME280;60008;50.826;6.896;2023-05-12T12:58:24;101030.94;;;18.91;100.00
72959;BME280;60008;50.826;6.896;2023-05-12T13:01:09;101031.97;;;18.71;100.00
72959;BME280;60008;50.826;6.896;2023-05-12T13:03:54;101029.47;;;18.95;100.00
72959;BME280;60008;50.826;6.896;2023-05-12T13:06:39;101033.16;;;19.21;100.00
72959;BME280;60008;50.826;6.896;2023-05-12T13:09:25;101026.13;;;19.26;100.00
72959;BME280;60008;50.826;6.896;2023-05-12T13:12:10;101026.88;;;19.59;100.00
72959;BME280;60008;50.826;6.896;2023-05-12T13:14:55;101033.00;;;19.80;100.00
72959;BME280;60008;50.826;6.896;2023-05-12T13:17:40;101031.34;;;19.79;100.00
72959;BME280;60008;50.826;6.896;2023-05-12T13:20:25;101033.97;;;19.47;100.00
72959;BME280;60008;50.826;6.896;2023-05-12T13:23:10;101028.94;;;19.57;100.00
72959;BME280;60008;50.826;6.896;2023-05-12T13:25:55;101025.41;;;19.64;100.00
72959;BME280;60008;50.826;6.896;2023-05-12T13:28:42;101026.31;;;19.38;100.00
72959;BME280;60008;50.826;6.896;2023-05-12T13:31:27;101019.28;;;19.43;100.00
72959;BME280;60008;50.826;6.896;2023-05-12T13:34:13;101022.97;;;19.62;100.00
72959;BME280;60008;50.826;6.896;2023-05-12T13:36:58;101027.84;;;19.78;100.00
72959;BME280;60008;50.826;6.896;2023-05-12T13:39:43;101020.47;;;20.05;100.00
72959;BME280;60008;50.826;6.896;2023-05-12T13:42:28;101022.19;;;19.42;98.15
72959;BME280;60008;50.826;6.896;2023-05-12T13:45:13;101027.56;;;19.48;96.60
72959;BME280;60008;50.826;6.896;2023-05-12T13:47:58;101032.06;;;19.61;98.03
72959;BME280;60008;50.826;6.896;2023-05-12T13:50:43;101031.34;;;19.79;100.00
72959;BME280;60008;50.826;6.896;2023-05-12T13:53:28;101029.66;;;19.84;100.00
72959;BME280;60008;50.826;6.896;2023-05-12T13:56:14;101026.09;;;19.97;100.00
72959;BME280;60008;50.826;6.896;2023-05-12T13:59:00;101024.69;;;19.88;100.00
72959;BME280;60008;50.826;6.896;2023-05-12T14:01:45;101029.38;;;19.61;96.36
72959;BME280;60008;50.826;6.896;2023-05-12T14:04:31;101041.09;;;19.73;100.00
72959;BME280;60008;50.826;6.896;2023-05-12T14:07:15;101027.84;;;19.78;96.95
72959;BME280;60008;50.826;6.896;2023-05-12T14:10:02;101031.94;;;19.87;96.11
72959;BME280;60008;50.826;6.896;2023-05-12T14:12:47;101037.00;;;19.64;100.00
72959;BME280;60008;50.826;6.896;2023-05-12T14:15:32;101036.19;;;19.57;100.00
72959;BME280;60008;50.826;6.896;2023-05-12T14:18:32;101039.47;;;19.66;95.49